createdAt,value
2023-02-26T00:02:32.785Z,3.00
2023-02-26T00:06:36.702Z,3.10
2023-02-26T00:10:37.997Z,2.90
2023-02-26T00:14:39.873Z,3.00
2023-02-26T00:18:41.646Z,3.10
2023-02-26T00:22:43.881Z,3.10
2023-02-26T00:26:45.092Z,3.10
2023-02-26T00:30:46.716Z,3.00
2023-02-26T00:34:48.607Z,3.00
2023-02-26T00:39:08.517Z,3.10
2023-02-26T00:43:16.068Z,3.00
2023-02-26T00:47:27.375Z,2.90
2023-02-26T00:51:44.168Z,2.80
2023-02-26T00:55:45.364Z,2.80
2023-02-26T00:59:46.575Z,2.80
2023-02-26T01:03:48.377Z,2.90
2023-02-26T01:08:14.790Z,2.90
2023-02-26T01:12:16.832Z,2.90
2023-02-26T01:16:25.069Z,2.80
2023-02-26T01:20:30.313Z,3.00
2023-02-26T01:24:34.507Z,3.00
2023-02-26T01:28:36.613Z,3.00
2023-02-26T01:32:47.952Z,3.00
2023-02-26T01:36:55.834Z,3.10
2023-02-26T01:41:13.170Z,3.10
2023-02-26T01:45:21.260Z,2.90
2023-02-26T01:49:23.365Z,2.80
2023-02-26T01:53:26.000Z,2.80
2023-02-26T01:57:27.176Z,2.80
2023-02-26T02:01:28.454Z,2.80
2023-02-26T02:05:33.426Z,2.80
2023-02-26T02:09:34.876Z,2.60
2023-02-26T02:13:42.880Z,2.60
2023-02-26T02:17:53.880Z,2.50
2023-02-26T02:22:24.984Z,2.40
2023-02-26T02:26:39.056Z,2.40
2023-02-26T02:30:56.279Z,2.40
2023-02-26T02:35:04.247Z,2.60
2023-02-26T02:39:14.874Z,2.60
2023-02-26T02:43:19.667Z,2.40
2023-02-26T02:47:22.811Z,2.30
2023-02-26T02:51:27.905Z,2.20
2023-02-26T02:55:35.540Z,2.20
2023-02-26T02:59:49.930Z,2.10
2023-02-26T03:04:00.952Z,2.10
2023-02-26T03:08:08.950Z,2.00
2023-02-26T03:12:10.281Z,1.90
2023-02-26T03:16:30.599Z,1.90
2023-02-26T03:20:35.256Z,1.90
2023-02-26T03:24:49.387Z,1.90
2023-02-26T03:29:00.381Z,1.70
2023-02-26T03:33:37.566Z,1.70
2023-02-26T03:37:51.274Z,1.70
2023-02-26T03:42:10.978Z,1.60
2023-02-26T03:46:15.992Z,1.40
2023-02-26T03:50:20.923Z,1.40
2023-02-26T03:54:37.108Z,1.50
2023-02-26T03:58:38.469Z,1.40
2023-02-26T04:03:02.033Z,1.60
2023-02-26T04:07:03.262Z,1.60
2023-02-26T04:11:11.288Z,1.60
2023-02-26T04:15:13.336Z,1.60
2023-02-26T04:19:14.607Z,1.40
2023-02-26T04:23:15.785Z,1.40
2023-02-26T04:27:16.853Z,1.30
2023-02-26T04:31:18.073Z,1.40
2023-02-26T04:35:19.365Z,1.20
2023-02-26T04:39:20.565Z,1.20
2023-02-26T04:43:22.094Z,1.20
2023-02-26T04:47:23.233Z,1.40
2023-02-26T04:51:24.673Z,1.40
2023-02-26T04:55:25.873Z,1.40
2023-02-26T04:59:27.064Z,1.50
2023-02-26T05:03:28.218Z,1.60
2023-02-26T05:07:29.358Z,1.60
2023-02-26T05:11:30.629Z,1.50
2023-02-26T05:15:31.965Z,1.50
2023-02-26T05:19:33.032Z,1.40
2023-02-26T05:23:34.380Z,1.60
2023-02-26T05:27:35.532Z,1.40
2023-02-26T05:31:36.631Z,1.30
2023-02-26T05:35:38.131Z,1.20
2023-02-26T05:39:40.740Z,1.20
2023-02-26T05:43:41.907Z,1.00
2023-02-26T05:51:09.569Z,0.90
2023-02-26T05:55:11.858Z,0.70
2023-02-26T05:59:13.017Z,0.60
2023-02-26T06:03:14.318Z,0.60
2023-02-26T06:07:15.648Z,0.70
2023-02-26T06:11:16.818Z,0.70
2023-02-26T06:15:18.219Z,0.80
2023-02-26T06:19:21.013Z,0.80
2023-02-26T06:23:22.184Z,0.80
2023-02-26T06:27:24.268Z,0.70
2023-02-26T06:31:25.719Z,0.70
2023-02-26T06:35:28.749Z,0.70
2023-02-26T06:39:29.924Z,0.80
2023-02-26T06:43:31.312Z,0.80
2023-02-26T06:47:32.477Z,0.80
2023-02-26T06:51:33.764Z,0.70
2023-02-26T06:55:34.948Z,0.80
2023-02-26T06:59:36.132Z,1.00
2023-02-26T07:03:37.317Z,1.00
2023-02-26T07:07:38.702Z,1.00
2023-02-26T07:11:39.869Z,1.00
2023-02-26T07:15:41.027Z,1.10
2023-02-26T07:19:43.603Z,1.10
2023-02-26T07:23:44.780Z,1.10
2023-02-26T07:27:46.765Z,1.20
2023-02-26T07:31:47.994Z,1.20
2023-02-26T07:35:49.414Z,1.30
2023-02-26T07:39:51.078Z,1.30
2023-02-26T07:43:52.243Z,1.40
2023-02-26T07:47:53.713Z,1.50
2023-02-26T07:51:54.872Z,1.70
2023-02-26T07:55:56.079Z,2.60
2023-02-26T07:59:57.277Z,2.80
2023-02-26T08:03:58.476Z,2.90
2023-02-26T08:08:01.467Z,2.60
2023-02-26T08:12:03.105Z,2.50
2023-02-26T08:16:04.279Z,2.40
2023-02-26T08:20:06.989Z,2.80
2023-02-26T08:24:10.661Z,3.20
2023-02-26T08:28:12.211Z,3.20
2023-02-26T08:32:14.985Z,3.20
2023-02-26T08:36:16.972Z,3.20
2023-02-26T08:40:18.282Z,3.20
2023-02-26T08:44:19.462Z,3.10
2023-02-26T08:48:20.933Z,3.50
2023-02-26T08:52:22.501Z,4.00
2023-02-26T08:56:24.155Z,3.90
2023-02-26T09:00:25.593Z,3.50
2023-02-26T09:04:30.675Z,3.30
2023-02-26T09:08:34.740Z,3.60
2023-02-26T09:12:36.306Z,3.90
2023-02-26T09:16:38.076Z,4.00
2023-02-26T09:20:39.248Z,3.80
2023-02-26T09:24:40.474Z,3.80
2023-02-26T09:28:42.260Z,3.70
2023-02-26T09:32:44.417Z,3.40
2023-02-26T09:36:46.142Z,3.20
2023-02-26T09:41:02.940Z,3.20
2023-02-26T09:45:07.596Z,3.30
2023-02-26T09:49:28.150Z,3.40
2023-02-26T09:53:33.540Z,3.60
2023-02-26T09:57:38.237Z,3.50
2023-02-26T10:01:49.596Z,3.20
2023-02-26T10:06:03.305Z,3.60
2023-02-26T10:10:26.780Z,4.60
2023-02-26T10:14:31.783Z,4.30
2023-02-26T10:18:36.753Z,3.90
2023-02-26T10:23:07.261Z,3.80
2023-02-26T10:27:17.954Z,3.80
2023-02-26T10:31:38.371Z,4.00
2023-02-26T10:35:43.866Z,4.10
2023-02-26T10:39:51.897Z,4.10
2023-02-26T10:44:08.483Z,3.90
2023-02-26T10:48:25.085Z,3.80
2023-02-26T10:52:28.771Z,3.80
2023-02-26T10:56:31.960Z,3.80
2023-02-26T11:00:35.072Z,3.70
2023-02-26T11:04:37.051Z,3.70
2023-02-26T11:08:44.679Z,3.70
2023-02-26T11:12:46.621Z,4.00
2023-02-26T11:16:51.614Z,4.10
2023-02-26T11:20:56.870Z,4.40
2023-02-26T11:24:59.006Z,4.50
2023-02-26T11:29:00.570Z,4.50
2023-02-26T11:33:17.891Z,4.50
2023-02-26T11:37:22.079Z,4.50
2023-02-26T11:41:25.234Z,4.50
2023-02-26T11:45:26.788Z,4.40
2023-02-26T11:49:28.988Z,4.90
2023-02-26T11:53:33.970Z,5.00
2023-02-26T11:57:39.061Z,5.10
2023-02-26T12:01:42.345Z,5.30
2023-02-26T12:05:44.738Z,5.40
2023-02-26T12:09:47.297Z,5.40
2023-02-26T12:14:08.030Z,5.50
2023-02-26T12:18:15.621Z,5.80
2023-02-26T12:22:28.441Z,5.20
2023-02-26T12:26:42.488Z,5.00
2023-02-26T12:30:59.718Z,5.20
2023-02-26T12:35:05.245Z,5.10
2023-02-26T12:39:16.295Z,4.90
2023-02-26T12:43:39.449Z,4.80
2023-02-26T12:47:59.093Z,4.80
2023-02-26T12:52:14.489Z,4.90
2023-02-26T12:56:41.956Z,5.00
2023-02-26T13:01:14.359Z,4.80
2023-02-26T13:05:28.165Z,4.70
2023-02-26T13:09:52.714Z,4.60
2023-02-26T13:14:06.310Z,4.60
2023-02-26T13:18:31.256Z,4.70
2023-02-26T13:22:39.250Z,4.90
2023-02-26T13:26:42.133Z,4.90
2023-02-26T13:30:47.154Z,4.90
2023-02-26T13:35:03.351Z,4.70
2023-02-26T13:39:31.502Z,4.50
2023-02-26T13:43:39.132Z,4.60
2023-02-26T13:47:49.912Z,4.50
2023-02-26T13:51:53.528Z,4.60
2023-02-26T13:56:15.337Z,4.70
2023-02-26T14:00:32.682Z,4.80
2023-02-26T14:04:37.752Z,4.70
2023-02-26T14:08:44.799Z,4.60
2023-02-26T14:12:46.887Z,4.80
2023-02-26T14:16:51.935Z,4.80
2023-02-26T14:20:56.995Z,4.70
2023-02-26T14:25:08.008Z,4.60
2023-02-26T14:29:22.087Z,4.80
2023-02-26T14:33:30.601Z,4.80
2023-02-26T14:37:35.560Z,4.60
2023-02-26T14:41:40.530Z,4.70
2023-02-26T14:45:43.855Z,4.70
2023-02-26T14:49:47.451Z,4.90
2023-02-26T14:54:26.287Z,5.00
2023-02-26T14:58:43.153Z,5.10
2023-02-26T15:02:53.767Z,5.00
2023-02-26T15:07:04.233Z,4.90
2023-02-26T15:11:27.783Z,5.20
2023-02-26T15:15:53.354Z,5.40
2023-02-26T15:20:19.722Z,5.20
2023-02-26T15:24:21.226Z,5.10
2023-02-26T15:28:29.245Z,5.10
2023-02-26T15:32:32.789Z,5.10
2023-02-26T15:36:33.881Z,4.80
2023-02-26T15:40:39.302Z,4.80
2023-02-26T15:44:55.143Z,4.70
2023-02-26T15:48:44.030Z,4.70
2023-02-26T15:52:48.993Z,4.80
2023-02-26T15:56:50.841Z,4.70
2023-02-26T16:00:54.217Z,4.50
2023-02-26T16:04:55.461Z,4.40
2023-02-26T16:08:57.615Z,4.50
2023-02-26T16:13:00.174Z,4.50
2023-02-26T16:17:03.521Z,4.60
2023-02-26T16:21:08.426Z,4.40
2023-02-26T16:25:25.844Z,4.50
2023-02-26T16:29:30.719Z,4.50
2023-02-26T16:33:33.693Z,4.50
2023-02-26T16:37:38.186Z,4.30
2023-02-26T16:41:40.564Z,4.30
2023-02-26T16:45:50.061Z,4.30
2023-02-26T16:49:51.189Z,4.40
2023-02-26T16:54:02.867Z,4.50
2023-02-26T16:58:07.469Z,4.50
2023-02-26T17:02:17.686Z,4.30
2023-02-26T17:06:19.681Z,4.20
2023-02-26T17:10:30.625Z,4.10
2023-02-26T17:14:39.853Z,4.10
2023-02-26T17:18:41.028Z,4.20
2023-02-26T17:22:44.186Z,4.30
2023-02-26T17:26:47.272Z,4.30
2023-02-26T17:30:48.556Z,4.20
2023-02-26T17:34:50.955Z,4.20
2023-02-26T17:38:52.097Z,4.20
2023-02-26T17:42:53.390Z,4.10
2023-02-26T17:46:54.527Z,4.00
2023-02-26T17:50:57.173Z,4.10
2023-02-26T17:54:58.569Z,4.20
2023-02-26T18:03:12.677Z,4.00
2023-02-26T18:07:15.940Z,3.80
2023-02-26T18:11:20.369Z,3.70
2023-02-26T18:15:21.634Z,3.70
2023-02-26T18:19:22.792Z,3.60
2023-02-26T18:23:24.848Z,3.70
2023-02-26T18:27:26.312Z,3.70
2023-02-26T18:31:29.444Z,3.70
2023-02-26T18:35:31.148Z,3.60
2023-02-26T18:39:33.644Z,3.50
2023-02-26T18:43:34.911Z,3.60
2023-02-26T18:47:37.787Z,3.70
2023-02-26T18:51:38.990Z,3.70
2023-02-26T18:55:40.139Z,3.70
2023-02-26T18:59:41.278Z,3.70
2023-02-26T19:03:42.649Z,3.60
2023-02-26T19:07:44.365Z,3.80
2023-02-26T19:11:45.548Z,3.70
2023-02-26T19:15:46.959Z,3.50
2023-02-26T19:19:48.310Z,3.50
2023-02-26T19:23:49.478Z,3.60
2023-02-26T19:27:52.540Z,3.60
2023-02-26T19:31:54.155Z,3.60
2023-02-26T19:35:55.518Z,3.60
2023-02-26T19:39:56.687Z,3.50
2023-02-26T19:43:58.117Z,3.60
2023-02-26T19:47:59.421Z,3.60
2023-02-26T19:56:08.913Z,3.40
2023-02-26T20:00:15.327Z,3.40
2023-02-26T20:08:26.993Z,3.40
2023-02-26T20:12:29.622Z,3.40
2023-02-26T20:16:31.079Z,3.50
2023-02-26T20:20:32.347Z,3.60
2023-02-26T20:24:33.704Z,3.60
2023-02-26T20:28:35.555Z,3.60
2023-02-26T20:32:37.265Z,3.70
2023-02-26T20:36:38.979Z,3.50
2023-02-26T20:40:40.709Z,3.40
2023-02-26T20:44:42.176Z,3.40
2023-02-26T20:48:44.047Z,3.30
2023-02-26T20:52:45.282Z,3.10
2023-02-26T20:56:48.182Z,2.90
2023-02-26T21:00:50.984Z,3.00
2023-02-26T21:04:52.185Z,3.10
2023-02-26T21:08:53.935Z,2.90
2023-02-26T21:12:55.291Z,2.90
2023-02-26T21:16:58.502Z,2.70
2023-02-26T21:21:04.426Z,2.50
2023-02-26T21:25:07.253Z,2.50
2023-02-26T21:29:09.009Z,2.60
2023-02-26T21:33:10.278Z,2.50
2023-02-26T21:37:12.088Z,2.40
2023-02-26T21:41:14.117Z,2.40
2023-02-26T21:45:15.828Z,2.40
2023-02-26T21:49:17.107Z,2.50
2023-02-26T21:53:18.601Z,2.50
2023-02-26T21:57:19.831Z,2.40
2023-02-26T22:01:21.541Z,2.10
2023-02-26T22:05:22.827Z,2.20
2023-02-26T22:09:23.994Z,2.10
2023-02-26T22:13:25.231Z,2.10
2023-02-26T22:17:26.438Z,2.10
2023-02-26T22:21:27.954Z,2.10
2023-02-26T22:25:30.377Z,2.10
2023-02-26T22:29:31.568Z,2.20
2023-02-26T22:33:32.754Z,2.00
2023-02-26T22:37:33.916Z,2.00
2023-02-26T22:41:36.209Z,1.90
2023-02-26T22:45:37.690Z,1.90
2023-02-26T22:49:38.891Z,1.80
2023-02-26T22:53:42.452Z,1.80
2023-02-26T22:57:44.037Z,1.80
2023-02-26T23:01:46.588Z,1.70
2023-02-26T23:05:47.765Z,1.70
2023-02-26T23:09:49.013Z,1.80
2023-02-26T23:13:50.141Z,1.80
2023-02-26T23:17:51.237Z,1.80
2023-02-26T23:21:53.118Z,1.80
2023-02-26T23:25:54.600Z,1.70
2023-02-26T23:29:55.857Z,1.70
2023-02-26T23:33:57.024Z,1.60
2023-02-26T23:37:58.238Z,1.60
2023-02-26T23:41:59.369Z,1.60
2023-02-26T23:46:00.540Z,1.50
2023-02-26T23:50:02.132Z,1.50
2023-02-26T23:54:03.974Z,1.50
2023-02-26T23:58:05.165Z,1.40
